Time;durP1;ratioP1;P1;durP2;ratioP2;P2;SDS_P1;SDS_P2;PMS_P1;PMS_P2;Temp;Humidity;BMP_temperature;BMP_pressure;BME280_temperature;BME280_humidity;BME280_pressure;Samples;Min_cycle;Max_cycle;Signal;HPM_P1;HPM_P2
2021/04/24 00:01:56;;;;;;;10.45;7.03;;;;;;;9.24;62.00;100983.72;5054359;28;20053;-71
2021/04/24 00:04:30;;;;;;;14.27;6.82;;;;;;;9.23;62.16;100990.59;5054133;28;20195;-72
2021/04/24 00:07:03;;;;;;;10.35;6.55;;;;;;;9.22;61.83;100995.72;5054070;28;20087;-72
2021/04/24 00:09:31;;;;;;;10.27;6.63;;;;;;;9.23;62.09;100994.91;5054353;28;20394;-72
2021/04/24 00:12:00;;;;;;;12.05;6.32;;;;;;;9.22;61.85;100993.13;5052113;28;20385;-72
2021/04/24 00:14:37;;;;;;;12.63;7.25;;;;;;;9.21;61.86;100994.81;5054104;28;20045;-72
2021/04/24 00:17:10;;;;;;;17.75;7.43;;;;;;;9.20;61.65;100987.88;5052715;28;20032;-72
2021/04/24 00:19:42;;;;;;;11.68;7.25;;;;;;;9.20;61.98;100992.19;5052215;28;20036;-72
2021/04/24 00:22:11;;;;;;;8.73;6.70;;;;;;;9.19;61.97;100998.19;5052792;28;20494;-73
2021/04/24 00:24:42;;;;;;;11.13;7.53;;;;;;;9.18;61.77;100991.25;5052552;28;20504;-72
2021/04/24 00:27:11;;;;;;;12.50;7.13;;;;;;;9.18;61.98;100996.41;5053574;28;20489;-72
2021/04/24 00:29:46;;;;;;;11.73;7.03;;;;;;;9.16;62.14;100987.72;5053738;28;20037;-72
2021/04/24 00:32:20;;;;;;;17.20;8.00;;;;;;;9.16;61.96;100985.13;5053546;28;20094;-72
2021/04/24 00:34:53;;;;;;;12.02;6.20;;;;;;;9.14;62.10;100985.09;5053987;28;20049;-72
2021/04/24 00:37:25;;;;;;;12.90;6.97;;;;;;;9.13;61.85;100984.19;5052734;28;20037;-72
2021/04/24 00:39:53;;;;;;;12.02;7.20;;;;;;;9.13;62.23;100985.91;5053494;28;20127;-72
2021/04/24 00:42:27;;;;;;;11.25;7.50;;;;;;;9.12;62.36;100979.84;5053431;28;20037;-72
2021/04/24 00:44:56;;;;;;;10.55;6.65;;;;;;;9.12;62.00;100989.31;5036189;28;20522;-72
2021/04/24 00:47:27;;;;;;;13.13;7.32;;;;;;;9.10;62.12;100986.69;5053590;28;20507;-72
2021/04/24 00:49:57;;;;;;;13.88;7.72;;;;;;;9.11;62.55;100987.56;5053075;28;20044;-72
2021/04/24 00:52:33;;;;;;;10.68;7.65;;;;;;;9.10;62.00;100988.38;5036069;28;20442;-72
2021/04/24 00:55:05;;;;;;;10.10;6.68;;;;;;;9.11;62.14;100992.72;5053241;28;20040;-71
2021/04/24 00:57:34;;;;;;;10.43;7.53;;;;;;;9.10;62.30;100985.78;5052607;28;20037;-72
2021/04/24 01:00:08;;;;;;;11.93;7.13;;;;;;;9.10;62.39;100976.34;5053460;28;20033;-73
2021/04/24 01:02:38;;;;;;;11.45;6.28;;;;;;;9.10;62.45;100980.63;5052030;28;20538;-73
2021/04/24 01:05:13;;;;;;;13.88;6.78;;;;;;;9.08;62.31;100972.81;5053249;28;20044;-72
2021/04/24 01:07:45;;;;;;;11.30;7.45;;;;;;;9.08;62.38;100972.81;5053266;28;20468;-73
2021/04/24 01:10:16;;;;;;;11.00;7.18;;;;;;;9.07;62.55;100968.47;5053243;28;20068;-72
2021/04/24 01:12:47;;;;;;;9.98;7.07;;;;;;;9.07;62.37;100975.31;5036025;28;20132;-70
2021/04/24 01:15:25;;;;;;;10.80;6.38;;;;;;;9.08;62.42;100974.50;5052980;28;20385;-70
2021/04/24 01:17:53;;;;;;;9.95;6.60;;;;;;;9.07;62.53;100973.66;5051599;28;20037;-72
2021/04/24 01:20:25;;;;;;;14.95;8.02;;;;;;;9.07;62.58;100970.16;5053686;28;20037;-73
2021/04/24 01:22:56;;;;;;;13.18;7.13;;;;;;;9.06;62.63;100970.97;5054369;28;20040;-73
2021/04/24 01:25:30;;;;;;;14.35;7.18;;;;;;;9.05;62.32;100977.88;5055917;28;20025;-73
2021/04/24 01:28:00;;;;;;;12.13;6.93;;;;;;;9.05;62.76;100971.81;5055937;28;20443;-72
2021/04/24 01:30:35;;;;;;;15.55;7.70;;;;;;;9.04;62.73;100970.94;5056822;28;20036;-72
2021/04/24 01:33:09;;;;;;;10.55;7.13;;;;;;;9.03;62.89;100964.00;5057116;28;20119;-72
2021/04/24 01:35:39;;;;;;;;;;;;;;;9.01;62.49;100957.88;5057274;28;20037;-73
2021/04/24 01:38:10;;;;;;;15.15;7.70;;;;;;;8.99;62.50;100957.84;5057073;28;19920;-72
2021/04/24 01:40:44;;;;;;;10.73;7.38;;;;;;;8.99;62.52;100960.44;5057029;28;20044;-73
2021/04/24 01:43:15;;;;;;;12.23;7.38;;;;;;;8.98;62.65;100957.78;5039307;28;20048;-71
2021/04/24 01:45:47;;;;;;;8.80;6.97;;;;;;;8.97;62.68;100958.59;5056168;28;20032;-72
2021/04/24 01:48:20;;;;;;;11.90;8.43;;;;;;;8.96;62.83;100957.72;5055572;28;20028;-73
2021/04/24 01:50:51;;;;;;;12.80;7.60;;;;;;;8.94;62.67;100954.19;5056982;28;20072;-73
2021/04/24 01:53:25;;;;;;;;;;;;;;;8.94;62.60;100955.91;5055873;28;20033;-72
2021/04/24 01:56:00;;;;;;;17.02;8.10;;;;;;;8.92;62.71;100950.66;5072461;28;19913;-72
2021/04/24 01:58:32;;;;;;;14.75;8.65;;;;;;;8.92;62.87;100947.22;5055483;28;20477;-73
2021/04/24 02:01:07;;;;;;;10.38;7.97;;;;;;;8.92;62.76;100952.38;5038831;28;20442;-73
2021/04/24 02:03:38;;;;;;;12.23;7.10;;;;;;;8.91;62.85;100953.22;5055169;28;20044;-72
2021/04/24 02:06:10;;;;;;;13.15;8.00;;;;;;;8.91;62.91;100954.06;5055942;28;20039;-72
2021/04/24 02:08:44;;;;;;;14.20;8.18;;;;;;;8.91;62.85;100960.97;5056470;28;20100;-71
2021/04/24 02:11:16;;;;;;;9.32;7.05;;;;;;;8.91;63.11;100960.97;5057019;28;20583;-72
2021/04/24 02:13:47;;;;;;;12.10;8.52;;;;;;;8.90;62.78;100954.03;5056728;28;20033;-72
2021/04/24 02:16:24;;;;;;;10.35;6.97;;;;;;;8.90;62.89;100956.63;5056247;28;20033;-71
2021/04/24 02:19:00;;;;;;;17.60;8.35;;;;;;;8.91;62.93;100953.22;5056016;28;20124;-72
2021/04/24 02:21:29;;;;;;;11.18;7.55;;;;;;;8.88;63.04;100950.50;5055034;28;20029;-72
2021/04/24 02:23:59;;;;;;;11.93;7.50;;;;;;;8.89;63.01;100942.78;5054694;28;20484;-72
2021/04/24 02:26:27;;;;;;;10.55;7.00;;;;;;;8.88;62.89;100948.78;5056033;28;20029;-72
2021/04/24 02:29:01;;;;;;;10.80;7.43;;;;;;;8.88;62.92;100946.19;5055524;28;20033;-70
2021/04/24 02:31:29;;;;;;;15.65;8.32;;;;;;;8.89;62.97;100949.69;5037929;28;20033;-72
2021/04/24 02:34:02;;;;;;;9.85;6.70;;;;;;;8.89;62.85;100949.69;5054499;28;20511;-71
2021/04/24 02:36:33;;;;;;;14.90;7.32;;;;;;;8.89;63.08;100953.13;5055971;28;20033;-71
2021/04/24 02:39:07;;;;;;;13.55;8.48;;;;;;;8.91;63.09;100953.22;5037821;28;20128;-72
2021/04/24 02:41:38;;;;;;;9.93;7.03;;;;;;;8.88;63.15;100953.94;5055818;28;20072;-71
2021/04/24 02:44:10;;;;;;;11.40;7.07;;;;;;;8.87;62.94;100949.63;5055836;28;20037;-71
2021/04/24 02:46:41;;;;;;;11.02;7.28;;;;;;;8.87;63.34;100947.06;5056038;28;20499;-73
2021/04/24 02:49:09;;;;;;;10.57;6.47;;;;;;;8.88;63.18;100950.50;5037944;28;20059;-71
2021/04/24 02:51:46;;;;;;;10.27;7.43;;;;;;;8.87;63.05;100949.63;5055445;28;20041;-72
2021/04/24 02:54:17;;;;;;;13.23;7.75;;;;;;;8.86;62.86;100941.81;5055089;28;20178;-72
2021/04/24 02:56:49;;;;;;;12.25;6.82;;;;;;;8.87;63.26;100943.56;5054580;28;20065;-72
2021/04/24 02:59:22;;;;;;;13.13;7.88;;;;;;;8.84;63.20;100942.63;5055723;28;20037;-72
2021/04/24 03:01:53;;;;;;;11.25;8.05;;;;;;;8.83;63.02;100943.44;5055365;28;20056;-71
2021/04/24 03:04:31;;;;;;;13.20;6.90;;;;;;;8.83;63.08;100946.03;5053864;28;20041;-72
2021/04/24 03:07:02;;;;;;;15.43;8.13;;;;;;;8.83;63.03;100946.03;5055560;28;20132;-71
2021/04/24 03:09:33;;;;;;;11.70;7.80;;;;;;;8.82;63.34;100946.00;5055444;28;20033;-73
2021/04/24 03:12:07;;;;;;;11.23;7.95;;;;;;;8.83;62.95;100945.16;5054834;28;20051;-71
2021/04/24 03:14:40;;;;;;;12.85;8.27;;;;;;;8.82;63.37;100946.84;5055129;28;20033;-72
2021/04/24 03:17:11;;;;;;;10.57;8.05;;;;;;;8.81;63.27;100955.44;5054650;28;20132;-72
2021/04/24 03:19:40;;;;;;;14.73;8.23;;;;;;;8.82;63.28;100957.19;5054609;28;20476;-72
2021/04/24 03:22:09;;;;;;;12.05;7.35;;;;;;;8.81;63.36;100952.84;5054823;28;20078;-72
2021/04/24 03:24:41;;;;;;;10.38;7.40;;;;;;;8.82;63.28;100948.56;5055419;28;20112;-72
2021/04/24 03:27:15;;;;;;;14.57;8.20;;;;;;;8.82;63.19;100943.41;5054441;28;20106;-71
2021/04/24 03:29:46;;;;;;;14.15;8.30;;;;;;;8.82;63.20;100943.41;5053954;28;20120;-73
2021/04/24 03:32:23;;;;;;;16.08;8.50;;;;;;;8.80;63.17;100948.50;5055096;28;20036;-72
2021/04/24 03:34:53;;;;;;;12.68;8.13;;;;;;;8.80;63.34;100950.22;5053846;28;20032;-73
2021/04/24 03:37:22;;;;;;;13.73;8.23;;;;;;;8.80;63.29;100951.09;5037027;28;20071;-72
2021/04/24 03:39:59;;;;;;;12.43;8.25;;;;;;;8.81;63.53;100958.00;5053486;28;20140;-72
2021/04/24 03:42:26;;;;;;;14.10;7.82;;;;;;;8.80;63.44;100956.25;5054356;28;20048;-73
2021/04/24 03:44:55;;;;;;;14.57;7.95;;;;;;;8.80;63.45;100945.91;5053121;28;20040;-72
2021/04/24 03:47:28;;;;;;;11.05;8.20;;;;;;;8.80;62.98;100945.03;5054489;28;20400;-71
2021/04/24 03:49:56;;;;;;;14.05;8.00;;;;;;;8.79;63.32;100945.88;5053296;28;20033;-72
2021/04/24 03:52:27;;;;;;;16.50;8.02;;;;;;;8.81;63.25;100951.97;5052912;28;20048;-72
2021/04/24 03:55:06;;;;;;;12.90;8.52;;;;;;;8.79;63.40;100945.88;5053946;28;20416;-71
2021/04/24 03:57:37;;;;;;;12.27;7.70;;;;;;;8.78;63.49;100952.75;5052933;28;20494;-72
2021/04/24 04:00:07;;;;;;;10.38;8.07;;;;;;;8.76;63.48;100949.22;5036199;28;20075;-71
2021/04/24 04:02:56;;;;;;;12.02;8.18;;;;;;;8.76;63.48;100951.81;5054141;28;20049;-72
2021/04/24 04:05:30;;;;;;;11.30;7.95;;;;;;;8.73;63.40;100946.53;5036261;28;20029;-72
2021/04/24 04:08:03;;;;;;;12.48;8.30;;;;;;;8.73;63.29;100941.34;5053474;28;20088;-72
2021/04/24 04:10:36;;;;;;;15.20;7.77;;;;;;;8.71;63.54;100947.28;5052907;28;20115;-72
2021/04/24 04:13:14;;;;;;;14.45;7.28;;;;;;;8.65;63.46;100937.56;5052927;28;20060;-71
2021/04/24 04:17:39;;;;;;;11.32;8.05;;;;;;;8.63;63.42;100947.00;5131957;27;20546;-70
2021/04/24 04:20:19;;;;;;;11.07;7.63;;;;;;;8.60;63.44;100945.16;5113932;28;20038;-70
2021/04/24 04:23:01;;;;;;;12.77;7.63;;;;;;;8.58;63.58;100944.22;5097630;28;20045;-71
2021/04/24 04:25:34;;;;;;;12.15;8.35;;;;;;;8.58;63.58;100941.63;5131427;28;20096;-71
2021/04/24 04:28:14;;;;;;;12.20;7.32;;;;;;;8.57;63.44;100944.16;5113241;28;20038;-72
2021/04/24 04:30:56;;;;;;;12.40;7.57;;;;;;;8.57;63.65;100949.34;5131990;28;20470;-71
2021/04/24 04:33:25;;;;;;;14.35;8.45;;;;;;;8.57;63.63;100951.91;5131621;28;20035;-71
2021/04/24 04:36:05;;;;;;;13.73;7.60;;;;;;;8.57;63.72;100951.91;5112502;28;20043;-71
2021/04/24 04:38:39;;;;;;;15.23;8.43;;;;;;;8.57;63.77;100951.91;5113487;28;20043;-71
2021/04/24 04:41:13;;;;;;;11.90;7.80;;;;;;;8.59;63.44;100958.03;5113636;28;20063;-71
2021/04/24 04:43:49;;;;;;;14.75;7.32;;;;;;;8.58;63.64;100954.56;5131709;28;20041;-71
2021/04/24 04:46:20;;;;;;;13.85;8.27;;;;;;;8.60;63.43;100959.81;5113384;28;20040;-71
2021/04/24 04:48:51;;;;;;;11.25;7.68;;;;;;;8.61;63.58;100958.97;5096018;28;20118;-73
2021/04/24 04:51:25;;;;;;;12.63;8.38;;;;;;;8.58;63.92;100964.88;5096040;28;20039;-71
2021/04/24 04:53:59;;;;;;;10.65;7.50;;;;;;;8.57;63.78;100962.25;5113187;28;20028;-71
2021/04/24 04:56:30;;;;;;;12.65;8.32;;;;;;;8.56;63.80;100961.38;5112931;28;20031;-73
2021/04/24 04:59:01;;;;;;;16.52;8.77;;;;;;;8.54;63.89;100957.88;5113094;28;20036;-71
2021/04/24 05:01:33;;;;;;;11.48;7.25;;;;;;;8.52;63.69;100959.50;5130941;28;20064;-72
2021/04/24 05:04:00;;;;;;;9.98;7.32;;;;;;;8.49;63.89;100957.66;5112849;28;20047;-72
2021/04/24 05:06:35;;;;;;;12.57;7.47;;;;;;;8.48;63.61;100960.19;5130666;28;20122;-73
2021/04/24 05:09:06;;;;;;;12.20;7.82;;;;;;;8.48;63.86;100962.78;5112774;28;20036;-73
2021/04/24 05:11:40;;;;;;;12.32;8.80;;;;;;;8.47;63.75;100968.72;5095356;28;20042;-72
2021/04/24 05:14:11;;;;;;;16.35;7.60;;;;;;;8.46;63.78;100970.44;5130422;28;20028;-72
2021/04/24 05:16:42;;;;;;;11.35;7.07;;;;;;;8.45;63.71;100970.38;5130191;28;20516;-72
2021/04/24 05:19:14;;;;;;;15.77;9.10;;;;;;;8.45;63.65;100971.28;5130927;28;20172;-72
2021/04/24 05:21:47;;;;;;;13.25;7.57;;;;;;;8.43;63.86;100957.41;5095701;28;20514;-72
2021/04/24 05:24:18;;;;;;;14.98;8.75;;;;;;;8.44;63.91;100966.03;5146866;27;20080;-73
2021/04/24 05:26:50;;;;;;;14.38;8.48;;;;;;;8.43;63.94;100954.81;5129654;28;20084;-72
2021/04/24 05:29:23;;;;;;;11.90;7.47;;;;;;;8.42;63.64;100958.22;5098713;28;20119;-72
2021/04/24 05:31:56;;;;;;;12.52;8.32;;;;;;;8.42;63.93;100960.81;5098971;28;20042;-72
2021/04/24 05:34:30;;;;;;;11.65;8.50;;;;;;;8.42;63.93;100967.66;5098833;28;20507;-72
2021/04/24 05:37:06;;;;;;;12.48;8.43;;;;;;;8.42;63.95;100963.38;5116265;28;20036;-72
2021/04/24 05:39:41;;;;;;;13.60;7.68;;;;;;;8.41;64.08;100963.34;5116736;28;20047;-73
2021/04/24 05:42:16;;;;;;;15.45;9.02;;;;;;;8.40;63.94;100969.31;5099153;28;20040;-73
2021/04/24 05:44:52;;;;;;;12.25;7.70;;;;;;;8.40;64.18;100966.75;5098477;28;20475;-72
2021/04/24 05:47:22;;;;;;;11.32;7.45;;;;;;;8.40;64.01;100975.38;5116515;28;20479;-72
2021/04/24 05:49:53;;;;;;;11.90;6.93;;;;;;;8.40;63.82;100970.19;5081300;28;20027;-72
2021/04/24 05:52:27;;;;;;;12.25;8.10;;;;;;;8.41;64.28;100973.69;5116922;28;20092;-73
2021/04/24 05:54:55;;;;;;;10.70;7.45;;;;;;;8.40;64.00;100969.31;5098646;28;20076;-73
2021/04/24 05:57:25;;;;;;;16.30;9.15;;;;;;;8.40;63.89;100975.38;5097933;28;20030;-74
2021/04/24 05:59:59;;;;;;;11.95;6.85;;;;;;;8.38;63.97;100980.47;5081057;28;20122;-72
2021/04/24 06:02:34;;;;;;;12.02;8.05;;;;;;;8.39;64.16;100981.34;5115761;28;20105;-72
2021/04/24 06:05:02;;;;;;;13.40;7.47;;;;;;;8.40;64.00;100987.41;5098184;28;20084;-74
2021/04/24 06:07:37;;;;;;;15.02;8.07;;;;;;;8.41;64.13;100986.59;5116152;28;20027;-72
2021/04/24 06:10:08;;;;;;;13.57;8.85;;;;;;;8.39;64.08;100986.50;5080653;28;20069;-73
2021/04/24 06:12:40;;;;;;;13.18;7.97;;;;;;;8.41;64.05;100989.19;5097991;28;20115;-74
2021/04/24 06:15:09;;;;;;;12.27;8.73;;;;;;;8.40;64.00;100992.56;5080836;28;20062;-73
2021/04/24 06:17:41;;;;;;;11.57;7.47;;;;;;;8.39;63.84;100994.25;5097875;28;20033;-73
2021/04/24 06:20:11;;;;;;;13.25;8.45;;;;;;;8.37;63.73;100990.72;5115943;28;20387;-72
2021/04/24 06:22:43;;;;;;;13.10;8.85;;;;;;;8.36;63.97;100997.63;5097860;28;20031;-72
2021/04/24 06:25:17;;;;;;;12.82;7.88;;;;;;;8.34;64.07;100988.91;5097486;28;20035;-73
2021/04/24 06:27:49;;;;;;;17.80;7.47;;;;;;;8.35;64.16;100997.53;5097417;28;20084;-73
2021/04/24 06:30:19;;;;;;;10.90;7.75;;;;;;;8.33;64.22;100986.28;5081187;28;20047;-73
2021/04/24 06:32:50;;;;;;;9.85;7.13;;;;;;;8.33;63.67;100992.31;5115456;28;20028;-73
2021/04/24 06:35:23;;;;;;;17.50;8.27;;;;;;;8.31;64.27;101000.84;5097234;28;20070;-73
2021/04/24 06:37:58;;;;;;;11.73;7.65;;;;;;;8.32;63.75;100997.44;5115486;28;20039;-72
2021/04/24 06:40:34;;;;;;;13.27;7.75;;;;;;;8.32;64.29;101000.03;5096887;28;20120;-72
2021/04/24 06:43:02;;;;;;;14.60;7.18;;;;;;;8.32;64.04;101002.59;5097487;28;20027;-72
2021/04/24 06:45:36;;;;;;;16.92;8.95;;;;;;;8.30;63.91;101004.22;5080420;28;20035;-72
2021/04/24 06:48:04;;;;;;;12.02;6.65;;;;;;;8.30;63.96;100996.50;5080410;28;20039;-73
2021/04/24 06:50:33;;;;;;;12.07;6.97;;;;;;;8.29;64.08;100994.72;5097539;28;20100;-73
2021/04/24 06:53:03;;;;;;;9.82;6.97;;;;;;;8.28;63.99;100999.00;5096999;28;20059;-73
2021/04/24 06:55:31;;;;;;;10.90;7.35;;;;;;;8.29;63.89;100997.31;5080487;28;20376;-73
2021/04/24 06:58:03;;;;;;;14.15;6.88;;;;;;;8.29;63.81;100997.31;5115494;28;20499;-73
2021/04/24 07:00:29;;;;;;;13.50;7.07;;;;;;;8.31;63.86;100990.50;5114968;28;20475;-74
2021/04/24 07:03:02;;;;;;;15.57;8.23;;;;;;;8.31;64.20;100993.09;5079449;28;20081;-73
2021/04/24 07:05:33;;;;;;;9.10;6.70;;;;;;;8.31;64.19;100990.50;5097441;28;20044;-73
2021/04/24 07:08:02;;;;;;;12.02;7.18;;;;;;;8.30;63.99;100993.91;5115249;28;20090;-73
2021/04/24 07:10:33;;;;;;;10.02;6.45;;;;;;;8.30;63.80;100991.31;5096775;28;20062;-73
2021/04/24 07:13:05;;;;;;;10.93;7.65;;;;;;;8.31;63.88;100985.34;5114719;28;20110;-73
2021/04/24 07:15:33;;;;;;;13.77;7.15;;;;;;;8.30;64.20;100986.16;5076028;28;20086;-73
2021/04/24 07:18:10;;;;;;;11.02;6.18;;;;;;;8.31;64.29;100993.09;5093299;28;20088;-73
2021/04/24 07:20:38;;;;;;;15.93;8.10;;;;;;;8.32;63.86;100990.56;5093211;28;20032;-73
2021/04/24 07:23:12;;;;;;;13.25;6.40;;;;;;;8.33;63.75;100991.44;5076170;28;20035;-73
2021/04/24 07:25:43;;;;;;;13.23;7.55;;;;;;;8.31;64.15;100991.38;5093874;28;20047;-74
2021/04/24 07:28:17;;;;;;;11.15;6.75;;;;;;;8.33;63.81;100992.31;5093008;28;20032;-73
2021/04/24 07:30:48;;;;;;;12.18;7.22;;;;;;;8.34;64.22;100993.19;5094067;28;20039;-73
2021/04/24 07:33:25;;;;;;;;;;;;;;;8.33;63.92;100994.91;5094807;28;20048;-73
2021/04/24 07:35:55;;;;;;;12.30;6.20;;;;;;;8.33;63.88;100994.91;5076197;28;19916;-74
2021/04/24 07:38:25;;;;;;;12.02;7.03;;;;;;;8.32;63.93;100993.13;5092873;28;20040;-72
2021/04/24 07:40:59;;;;;;;10.93;6.75;;;;;;;8.35;63.77;100992.38;5092888;28;20044;-74
2021/04/24 07:43:30;;;;;;;10.88;6.55;;;;;;;8.33;64.00;100988.88;5093361;28;20036;-73
2021/04/24 07:45:59;;;;;;;11.10;7.47;;;;;;;8.33;63.97;100987.16;5094135;28;20040;-73
2021/04/24 07:48:31;;;;;;;9.18;7.07;;;;;;;8.34;64.00;100988.00;5076161;28;20115;-72
2021/04/24 07:51:00;;;;;;;12.20;6.35;;;;;;;8.35;63.93;100990.69;5093609;28;20063;-73
2021/04/24 07:53:33;;;;;;;12.60;7.15;;;;;;;8.36;63.90;100991.53;5093451;28;20130;-73
2021/04/24 07:56:05;;;;;;;11.02;6.88;;;;;;;8.36;63.92;100994.13;5092918;28;20028;-73
2021/04/24 07:58:33;;;;;;;10.32;6.72;;;;;;;8.35;63.77;100987.19;5075929;28;20031;-73
2021/04/24 08:01:05;;;;;;;10.32;6.72;;;;;;;8.36;63.99;100996.72;5109711;28;20040;-73
2021/04/24 08:03:36;;;;;;;11.95;7.00;;;;;;;8.36;63.92;100996.72;5092292;28;20040;-73
2021/04/24 08:06:07;;;;;;;8.93;5.90;;;;;;;8.36;63.76;101000.19;5109700;28;20040;-73
2021/04/24 08:08:38;;;;;;;12.90;7.63;;;;;;;8.35;63.53;100997.53;5092994;28;20078;-72
2021/04/24 08:11:12;;;;;;;14.18;6.82;;;;;;;8.35;63.82;100993.25;5092650;28;20123;-73
2021/04/24 08:13:40;;;;;;;11.52;6.18;;;;;;;8.35;63.95;100994.94;5092288;28;20063;-73
2021/04/24 08:16:11;;;;;;;11.50;6.20;;;;;;;8.36;63.56;100991.53;5091897;28;20079;-73
2021/04/24 08:18:41;;;;;;;14.55;7.35;;;;;;;8.36;63.54;100986.38;5093322;28;20163;-73
2021/04/24 08:21:10;;;;;;;13.02;8.07;;;;;;;8.34;63.65;100990.59;5076027;28;20032;-74
2021/04/24 08:23:41;;;;;;;14.43;7.07;;;;;;;8.34;63.58;100985.44;5093902;28;20036;-74
2021/04/24 08:26:13;;;;;;;14.00;6.63;;;;;;;8.35;63.58;100988.09;5092529;28;20075;-73
2021/04/24 08:28:41;;;;;;;11.57;7.00;;;;;;;8.37;63.60;100995.91;5093548;28;20480;-73
2021/04/24 08:31:12;;;;;;;10.05;6.32;;;;;;;8.38;63.64;100987.34;5093392;28;20072;-73
2021/04/24 08:33:43;;;;;;;10.38;7.03;;;;;;;8.40;63.30;100993.44;5093731;28;20028;-73
2021/04/24 08:36:12;;;;;;;15.38;7.00;;;;;;;8.40;63.54;100988.28;5092232;28;20064;-74
2021/04/24 08:38:42;;;;;;;11.90;6.07;;;;;;;8.40;63.32;100988.28;5093073;28;20032;-73
2021/04/24 08:41:15;;;;;;;12.50;6.88;;;;;;;8.40;63.18;100992.56;5092453;28;20036;-74
2021/04/24 08:43:44;;;;;;;8.50;5.27;;;;;;;8.39;63.11;100989.09;5075658;28;20036;-74
2021/04/24 08:46:14;;;;;;;10.35;6.60;;;;;;;8.41;63.09;100986.59;5093210;28;20059;-74
2021/04/24 08:48:50;;;;;;;13.57;6.78;;;;;;;8.42;63.09;100980.56;5092049;28;20044;-73
2021/04/24 08:51:26;;;;;;;11.90;7.63;;;;;;;8.43;63.51;100979.75;5093223;28;20040;-73
2021/04/24 08:53:56;;;;;;;10.25;6.18;;;;;;;8.45;63.32;100988.44;5093454;28;20502;-73
2021/04/24 08:56:30;;;;;;;8.30;5.30;;;;;;;8.46;63.28;100983.38;5091963;28;20110;-73
2021/04/24 08:58:59;;;;;;;11.85;6.35;;;;;;;8.46;63.26;100979.88;5092019;28;20040;-73
2021/04/24 09:01:25;;;;;;;9.55;6.72;;;;;;;8.51;63.12;100983.56;5108371;28;20025;-73
2021/04/24 09:03:54;;;;;;;8.40;5.38;;;;;;;8.51;63.57;100988.75;5077923;28;20085;-73
2021/04/24 09:06:28;;;;;;;8.38;6.25;;;;;;;8.52;63.18;100981.03;5096915;28;20081;-73
2021/04/24 09:09:01;;;;;;;11.05;6.32;;;;;;;8.53;63.25;100980.22;5112413;28;20041;-73
2021/04/24 09:11:39;;;;;;;8.10;5.68;;;;;;;8.56;63.06;100976.00;5096023;28;20029;-73
2021/04/24 09:14:12;;;;;;;12.23;6.50;;;;;;;8.55;63.22;100977.72;5096860;28;20028;-72
2021/04/24 09:16:44;;;;;;;9.35;6.13;;;;;;;8.56;63.13;100971.72;5095291;28;20044;-73
2021/04/24 09:19:28;;;;;;;9.98;5.70;;;;;;;8.58;63.06;100980.41;5095911;28;20399;-72
2021/04/24 09:22:16;;;;;;;9.55;5.40;;;;;;;8.60;63.16;100972.72;5095533;28;20054;-73
2021/04/24 09:24:43;;;;;;;13.30;6.65;;;;;;;8.61;63.20;100974.50;5095404;28;20077;-73
2021/04/24 09:27:16;;;;;;;9.20;5.97;;;;;;;8.62;62.87;100968.50;5077618;28;20044;-73
2021/04/24 09:29:50;;;;;;;12.10;6.88;;;;;;;8.63;63.11;100965.97;5095304;28;20043;-73
2021/04/24 09:32:29;;;;;;;13.35;6.50;;;;;;;8.64;63.10;100964.28;5095613;28;20126;-73
2021/04/24 09:35:03;;;;;;;11.35;6.47;;;;;;;8.64;62.60;100965.13;5096402;28;20560;-74
2021/04/24 09:37:36;;;;;;;11.75;6.30;;;;;;;8.64;62.96;100964.28;5094821;28;20503;-73
2021/04/24 09:40:10;;;;;;;9.90;5.95;;;;;;;8.66;62.82;100955.75;5095429;28;20499;-73
2021/04/24 09:42:44;;;;;;;14.82;6.95;;;;;;;8.67;62.77;100959.19;5095223;28;20036;-73
2021/04/24 09:45:31;;;;;;;9.25;5.57;;;;;;;8.67;62.53;100960.09;5096665;28;20039;-73
2021/04/24 09:48:05;;;;;;;12.98;6.38;;;;;;;8.67;62.39;100952.34;5094966;28;20533;-74
2021/04/24 09:50:37;;;;;;;11.75;6.15;;;;;;;8.68;62.48;100955.78;5094687;28;20040;-73
2021/04/24 09:53:21;;;;;;;8.85;5.35;;;;;;;8.71;62.77;100949.88;5094726;28;20040;-73
2021/04/24 09:55:54;;;;;;;9.90;5.55;;;;;;;8.72;62.28;100946.47;5094792;28;20043;-74
2021/04/24 09:58:32;;;;;;;11.15;5.05;;;;;;;8.72;62.27;100942.19;5094916;28;20495;-74
2021/04/24 10:01:25;;;;;;;9.70;6.60;;;;;;;8.75;62.57;100938.81;5078014;28;20451;-73
2021/04/24 10:03:53;;;;;;;9.45;5.28;;;;;;;8.76;62.49;100933.72;5096053;28;20032;-73
2021/04/24 10:06:32;;;;;;;11.18;6.38;;;;;;;8.77;62.52;100934.59;5094506;28;20036;-73
2021/04/24 10:09:17;;;;;;;10.73;5.18;;;;;;;8.80;62.43;100927.81;5094628;28;20114;-73
2021/04/24 10:11:49;;;;;;;7.80;5.07;;;;;;;8.80;62.33;100929.53;5095947;28;20039;-73
2021/04/24 10:14:27;;;;;;;6.47;5.28;;;;;;;8.81;62.51;100926.13;5095447;28;20025;-73
2021/04/24 10:16:59;;;;;;;9.48;5.10;;;;;;;8.83;63.07;100932.25;5110507;28;20048;-73
2021/04/24 10:19:28;;;;;;;8.30;5.70;;;;;;;8.83;62.55;100930.53;5115923;28;20489;-74
2021/04/24 10:21:57;;;;;;;7.30;4.75;;;;;;;8.83;62.36;100930.53;5115893;28;20028;-73
2021/04/24 10:24:28;;;;;;;10.65;5.70;;;;;;;8.84;62.75;100919.38;5097597;28;20040;-73
2021/04/24 10:26:59;;;;;;;9.95;5.38;;;;;;;8.86;62.36;100926.28;5115846;28;20071;-73
2021/04/24 10:29:28;;;;;;;7.38;4.90;;;;;;;8.86;62.33;100921.13;5097769;28;20060;-73
2021/04/24 10:31:57;;;;;;;6.15;4.90;;;;;;;8.85;62.24;100917.69;5115458;28;20038;-73
2021/04/24 10:34:30;;;;;;;8.75;5.70;;;;;;;8.86;62.39;100926.28;5116386;28;20394;-73
2021/04/24 10:37:02;;;;;;;8.40;5.55;;;;;;;8.87;62.29;100922.88;5097010;28;20028;-73
2021/04/24 10:39:34;;;;;;;9.65;5.63;;;;;;;8.87;62.43;100926.38;5097588;28;20032;-73
2021/04/24 10:42:19;;;;;;;9.38;5.50;;;;;;;8.88;62.19;100925.53;5115648;28;20057;-73
2021/04/24 10:44:56;;;;;;;7.65;4.80;;;;;;;8.90;62.28;100910.09;5115963;28;20066;-73
2021/04/24 10:50:20;;;;;;;13.07;5.17;;;;;;;8.91;62.29;100912.72;5115514;28;20114;-73
2021/04/24 10:52:46;;;;;;;7.25;5.15;;;;;;;8.93;62.48;100915.38;5080173;28;20047;-73
2021/04/24 10:55:23;;;;;;;8.00;5.50;;;;;;;8.93;62.29;100903.31;5114911;28;20062;-74
2021/04/24 10:57:51;;;;;;;10.57;5.65;;;;;;;8.94;62.70;100901.63;5115540;28;20039;-74
2021/04/24 11:00:23;;;;;;;14.00;5.55;;;;;;;8.96;62.39;100902.53;5097034;28;20039;-74
2021/04/24 11:02:51;;;;;;;;;;;;;;;8.96;62.28;100895.66;5097262;28;20032;-73
2021/04/24 11:05:25;;;;;;;9.52;5.70;;;;;;;8.94;62.13;100897.31;5115076;28;19915;-74
2021/04/24 11:08:24;;;;;;;7.95;5.47;;;;;;;8.94;62.04;100889.56;5080334;28;20036;-74
2021/04/24 11:11:12;;;;;;;9.82;5.45;;;;;;;8.94;62.04;100888.69;5063904;28;20040;-74
2021/04/24 11:13:55;;;;;;;6.60;5.13;;;;;;;8.96;61.99;100884.44;5096776;28;20031;-73
2021/04/24 11:16:22;;;;;;;8.43;5.47;;;;;;;8.98;61.82;100894.03;5092875;28;20135;-73
2021/04/24 11:18:50;;;;;;;10.00;6.07;;;;;;;8.98;62.46;100883.69;5094295;28;20036;-73
2021/04/24 11:21:23;;;;;;;9.75;5.90;;;;;;;8.99;61.55;100887.13;5094282;28;20036;-73
2021/04/24 11:24:13;;;;;;;10.60;6.05;;;;;;;8.99;61.77;100882.88;5094423;28;20035;-73
2021/04/24 11:26:42;;;;;;;9.80;5.90;;;;;;;9.01;62.03;100884.63;5092687;28;20047;-73
2021/04/24 11:29:21;;;;;;;10.93;6.75;;;;;;;9.01;62.00;100880.31;5093912;28;20032;-74
2021/04/24 11:32:05;;;;;;;9.50;6.35;;;;;;;9.03;61.88;100875.22;5093037;28;20032;-74
2021/04/24 11:34:49;;;;;;;8.63;6.05;;;;;;;9.04;62.36;100874.38;5094107;28;20078;-73
2021/04/24 11:37:14;;;;;;;10.85;6.30;;;;;;;9.04;61.89;100883.03;5093255;28;20032;-73
2021/04/24 11:41:48;;;;;;;8.18;6.47;;;;;;;9.04;61.96;100875.25;5152815;27;20542;-72
2021/04/24 11:44:26;;;;;;;9.73;5.60;;;;;;;9.05;62.17;100878.72;5152495;27;20035;-73
2021/04/24 11:47:01;;;;;;;9.25;6.40;;;;;;;9.05;61.97;100873.53;5134257;27;20068;-73
2021/04/24 11:49:50;;;;;;;13.95;7.00;;;;;;;9.05;61.72;100868.38;5152297;27;20135;-73
2021/04/24 11:52:21;;;;;;;10.32;6.45;;;;;;;9.06;61.42;100880.47;5133797;27;20027;-73
2021/04/24 11:54:52;;;;;;;16.48;6.25;;;;;;;9.04;61.69;100876.94;5134189;27;20043;-73
2021/04/24 11:57:22;;;;;;;10.75;6.45;;;;;;;9.06;61.88;100872.72;5152544;27;20088;-73
2021/04/24 11:59:53;;;;;;;7.45;5.55;;;;;;;9.05;61.71;100877.03;5133492;27;20133;-70